createdAt,value
2023-02-15T00:02:11.106Z,71.34
2023-02-15T00:04:51.185Z,71.22
2023-02-15T00:07:21.087Z,71.78
2023-02-15T00:09:49.314Z,72.02
2023-02-15T00:12:18.281Z,71.89
2023-02-15T00:14:47.578Z,72.21
2023-02-15T00:17:15.743Z,71.69
2023-02-15T00:19:43.974Z,71.69
2023-02-15T00:22:11.948Z,71.13
2023-02-15T00:24:39.937Z,71.44
2023-02-15T00:27:13.460Z,72.33
2023-02-15T00:29:41.342Z,72.65
2023-02-15T00:32:10.588Z,73.29
2023-02-15T00:34:38.484Z,73.43
2023-02-15T00:37:06.381Z,72.72
2023-02-15T00:39:34.306Z,72.16
2023-02-15T00:42:02.290Z,72.02
2023-02-15T00:44:30.295Z,72.41
2023-02-15T00:46:58.230Z,71.30
2023-02-15T00:49:27.577Z,71.66
2023-02-15T00:51:55.472Z,71.76
2023-02-15T00:54:23.371Z,71.81
2023-02-15T00:56:51.559Z,72.39
2023-02-15T00:59:19.450Z,71.53
2023-02-15T01:01:49.401Z,72.14
2023-02-15T01:04:17.398Z,72.89
2023-02-15T01:06:46.691Z,71.88
2023-02-15T01:09:14.872Z,71.43
2023-02-15T01:11:42.776Z,71.21
2023-02-15T01:14:10.652Z,72.00
2023-02-15T01:16:40.272Z,71.98
2023-02-15T01:19:08.263Z,72.25
2023-02-15T01:21:36.599Z,72.85
2023-02-15T01:24:06.133Z,72.11
2023-02-15T01:26:34.007Z,72.19
2023-02-15T01:29:02.138Z,72.59
2023-02-15T01:31:30.103Z,72.12
2023-02-15T01:33:58.133Z,72.33
2023-02-15T01:36:26.021Z,72.44
2023-02-15T01:38:53.901Z,72.73
2023-02-15T01:41:23.908Z,71.97
2023-02-15T01:43:54.577Z,72.58
2023-02-15T01:46:26.811Z,73.02
2023-02-15T01:48:58.840Z,73.14
2023-02-15T01:51:29.757Z,72.80
2023-02-15T01:54:03.494Z,72.53
2023-02-15T01:56:36.814Z,73.22
2023-02-15T01:59:09.887Z,72.87
2023-02-15T02:01:37.944Z,73.25
2023-02-15T02:04:13.865Z,73.40
2023-02-15T02:06:42.199Z,73.08
2023-02-15T02:09:11.258Z,73.23
2023-02-15T02:11:42.392Z,72.69
2023-02-15T02:14:14.630Z,74.29
2023-02-15T02:16:50.331Z,73.47
2023-02-15T02:19:53.334Z,74.27
2023-02-15T02:23:00.736Z,74.24
2023-02-15T02:26:17.825Z,74.43
2023-02-15T02:29:24.499Z,74.41
2023-02-15T02:32:21.479Z,74.83
2023-02-15T02:34:57.532Z,74.45
2023-02-15T02:37:32.956Z,75.00
2023-02-15T02:40:10.161Z,75.39
2023-02-15T02:42:41.676Z,75.43
2023-02-15T02:45:12.485Z,75.10
2023-02-15T02:47:45.986Z,75.31
2023-02-15T02:50:20.139Z,74.84
2023-02-15T02:52:49.575Z,74.98
2023-02-15T02:55:23.333Z,76.08
2023-02-15T02:57:55.436Z,76.57
2023-02-15T03:00:25.702Z,75.61
2023-02-15T03:02:59.341Z,74.52
2023-02-15T03:05:31.620Z,75.07
2023-02-15T03:08:02.173Z,74.62
2023-02-15T03:10:31.601Z,75.39
2023-02-15T03:12:59.643Z,75.03
2023-02-15T03:15:52.536Z,75.81
2023-02-15T03:18:27.509Z,75.57
2023-02-15T03:20:58.620Z,75.60
2023-02-15T03:23:30.013Z,76.06
2023-02-15T03:26:03.861Z,76.38
2023-02-15T03:28:38.627Z,75.95
2023-02-15T03:31:09.322Z,75.74
2023-02-15T03:33:42.950Z,74.90
2023-02-15T03:36:20.846Z,75.25
2023-02-15T03:38:53.932Z,75.80
2023-02-15T03:41:26.141Z,74.68
2023-02-15T03:43:58.307Z,74.63
2023-02-15T03:46:30.516Z,74.77
2023-02-15T03:49:04.025Z,74.96
2023-02-15T03:51:39.158Z,74.71
2023-02-15T03:54:10.887Z,74.75
2023-02-15T03:56:41.158Z,74.55
2023-02-15T03:59:26.583Z,75.50
2023-02-15T04:02:07.723Z,76.75
2023-02-15T04:04:37.843Z,76.76
2023-02-15T04:07:08.523Z,76.49
2023-02-15T04:09:54.188Z,75.87
2023-02-15T04:12:22.520Z,75.68
2023-02-15T04:15:08.018Z,76.48
2023-02-15T04:17:37.888Z,76.29
2023-02-15T04:20:24.127Z,75.52
2023-02-15T04:23:10.775Z,76.01
2023-02-15T04:25:38.709Z,76.02
2023-02-15T04:28:08.541Z,76.35
2023-02-15T04:30:36.475Z,76.40
2023-02-15T04:33:04.492Z,76.91
2023-02-15T04:35:32.629Z,75.99
2023-02-15T04:38:01.983Z,77.16
2023-02-15T04:40:30.567Z,76.53
2023-02-15T04:42:58.457Z,78.03
2023-02-15T04:45:26.365Z,77.47
2023-02-15T04:47:54.243Z,77.35
2023-02-15T04:50:22.083Z,76.64
2023-02-15T04:52:50.089Z,75.60
2023-02-15T04:55:19.394Z,76.28
2023-02-15T04:57:48.094Z,76.12
2023-02-15T05:00:16.489Z,76.27
2023-02-15T05:02:44.334Z,76.63
2023-02-15T05:05:13.992Z,78.31
2023-02-15T05:07:42.055Z,76.51
2023-02-15T05:10:10.994Z,76.41
2023-02-15T05:12:40.216Z,76.98
2023-02-15T05:15:08.659Z,77.89
2023-02-15T05:17:36.659Z,77.32
2023-02-15T05:20:05.042Z,77.16
2023-02-15T05:22:32.937Z,77.41
2023-02-15T05:25:17.592Z,76.51
2023-02-15T05:28:05.324Z,75.69
2023-02-15T05:30:33.525Z,76.97
2023-02-15T05:33:01.566Z,76.21
2023-02-15T05:35:29.397Z,77.05
2023-02-15T05:37:57.254Z,76.65
2023-02-15T05:40:25.128Z,76.24
2023-02-15T05:42:54.419Z,76.30
2023-02-15T05:45:22.300Z,76.85
2023-02-15T05:47:50.141Z,78.44
2023-02-15T05:50:18.407Z,78.26
2023-02-15T05:52:48.093Z,78.26
2023-02-15T05:55:16.023Z,77.52
2023-02-15T05:57:43.926Z,77.05
2023-02-15T06:00:14.832Z,77.36
2023-02-15T06:02:43.067Z,76.43
2023-02-15T06:05:10.992Z,75.89
2023-02-15T06:07:38.859Z,75.88
2023-02-15T06:10:08.259Z,75.68
2023-02-15T06:12:36.089Z,75.93
2023-02-15T06:15:03.998Z,75.63
2023-02-15T06:17:33.829Z,75.90
2023-02-15T06:20:01.795Z,75.82
2023-02-15T06:22:29.648Z,76.13
2023-02-15T06:24:57.515Z,76.05
2023-02-15T06:27:25.510Z,76.29
2023-02-15T06:29:53.426Z,79.01
2023-02-15T06:32:21.282Z,79.57
2023-02-15T06:34:50.559Z,80.82
2023-02-15T06:37:18.437Z,79.15
2023-02-15T06:39:46.333Z,78.61
2023-02-15T06:42:14.184Z,77.06
2023-02-15T06:44:42.208Z,76.00
2023-02-15T06:47:10.041Z,76.18
2023-02-15T06:49:37.924Z,75.96
2023-02-15T06:52:07.548Z,76.98
2023-02-15T06:54:35.429Z,78.91
2023-02-15T06:57:03.531Z,77.79
2023-02-15T06:59:31.411Z,77.74
2023-02-15T07:01:59.807Z,76.41
2023-02-15T07:04:29.611Z,76.28
2023-02-15T07:06:57.897Z,76.33
2023-02-15T07:09:27.469Z,76.61
2023-02-15T07:12:12.795Z,78.93
2023-02-15T07:14:41.533Z,78.45
2023-02-15T07:17:27.480Z,77.55
2023-02-15T07:19:57.270Z,76.68
2023-02-15T07:22:25.140Z,75.94
2023-02-15T07:24:55.743Z,76.83
2023-02-15T07:27:23.741Z,76.26
2023-02-15T07:29:51.710Z,75.52
2023-02-15T07:32:19.763Z,75.94
2023-02-15T07:34:47.720Z,76.53
2023-02-15T07:37:15.698Z,76.97
2023-02-15T07:39:43.671Z,76.34
2023-02-15T07:42:12.917Z,76.31
2023-02-15T07:44:41.482Z,75.29
2023-02-15T07:47:09.480Z,74.82
2023-02-15T07:49:37.479Z,76.69
2023-02-15T07:52:05.600Z,76.06
2023-02-15T07:54:33.475Z,75.90
2023-02-15T07:57:02.655Z,76.08
2023-02-15T07:59:32.250Z,78.92
2023-02-15T08:02:00.160Z,79.70
2023-02-15T08:04:28.116Z,78.91
2023-02-15T08:06:56.386Z,77.74
2023-02-15T08:09:24.530Z,77.29
2023-02-15T08:11:52.334Z,76.88
2023-02-15T08:14:21.510Z,75.52
2023-02-15T08:16:53.182Z,75.59
2023-02-15T08:19:23.524Z,75.14
2023-02-15T08:21:54.401Z,74.54
2023-02-15T08:24:23.979Z,74.70
2023-02-15T08:26:52.625Z,74.58
2023-02-15T08:29:23.399Z,76.84
2023-02-15T08:31:55.528Z,76.22
2023-02-15T08:34:23.551Z,75.27
2023-02-15T08:36:51.924Z,76.26
2023-02-15T08:39:19.787Z,74.40
2023-02-15T08:41:49.415Z,74.89
2023-02-15T08:44:19.140Z,75.46
2023-02-15T08:46:48.806Z,74.43
2023-02-15T08:49:20.199Z,74.60
2023-02-15T08:51:49.323Z,73.41
2023-02-15T08:54:19.464Z,73.76
2023-02-15T08:56:48.107Z,74.67
2023-02-15T08:59:18.695Z,74.29
2023-02-15T09:01:47.692Z,74.10
2023-02-15T09:04:16.822Z,72.89
2023-02-15T09:06:49.385Z,75.14
2023-02-15T09:09:17.976Z,75.31
2023-02-15T09:11:47.677Z,75.54
2023-02-15T09:14:17.497Z,74.47
2023-02-15T09:16:49.650Z,75.34
2023-02-15T09:19:18.501Z,76.34
2023-02-15T09:21:48.314Z,76.54
2023-02-15T09:24:17.881Z,74.83
2023-02-15T09:26:49.445Z,73.49
2023-02-15T09:29:18.996Z,73.90
2023-02-15T09:31:49.749Z,73.42
2023-02-15T09:34:19.917Z,71.89
2023-02-15T09:36:49.524Z,73.04
2023-02-15T09:39:19.475Z,73.01
2023-02-15T09:42:18.612Z,73.00
2023-02-15T09:45:08.127Z,72.75
2023-02-15T09:47:49.205Z,72.06
2023-02-15T09:50:27.831Z,71.00
2023-02-15T09:53:10.667Z,70.49
2023-02-15T09:55:51.060Z,70.45
2023-02-15T09:58:27.590Z,69.46
2023-02-15T10:01:04.650Z,68.76
2023-02-15T10:03:49.552Z,67.76
2023-02-15T10:06:34.800Z,68.42
2023-02-15T10:09:20.021Z,68.49
2023-02-15T10:12:12.670Z,68.36
2023-02-15T10:14:59.558Z,69.91
2023-02-15T10:17:39.793Z,67.88
2023-02-15T10:20:20.218Z,68.09
2023-02-15T10:23:07.387Z,66.80
2023-02-15T10:25:48.427Z,65.30
2023-02-15T10:28:19.733Z,65.91
2023-02-15T10:30:50.287Z,65.83
2023-02-15T10:33:33.126Z,64.30
2023-02-15T10:36:23.088Z,64.04
2023-02-15T10:38:58.624Z,63.86
2023-02-15T10:41:39.162Z,63.28
2023-02-15T10:44:23.390Z,62.07
2023-02-15T10:47:07.629Z,61.57
2023-02-15T10:49:54.052Z,60.50
2023-02-15T10:52:31.520Z,59.57
2023-02-15T10:55:09.969Z,58.31
2023-02-15T10:57:48.907Z,61.01
2023-02-15T11:00:21.560Z,59.98
2023-02-15T11:03:08.334Z,59.37
2023-02-15T11:05:50.109Z,58.29
2023-02-15T11:08:18.613Z,58.02
2023-02-15T11:10:52.528Z,58.49
2023-02-15T11:13:24.814Z,58.80
2023-02-15T11:15:56.094Z,58.52
2023-02-15T11:18:30.151Z,56.96
2023-02-15T11:21:01.984Z,57.17
2023-02-15T11:23:30.898Z,57.80
2023-02-15T11:26:01.113Z,58.18
2023-02-15T11:28:35.224Z,57.43
2023-02-15T11:31:14.963Z,56.88
2023-02-15T11:33:48.546Z,55.06
2023-02-15T11:36:19.772Z,54.24
2023-02-15T11:38:51.198Z,56.55
2023-02-15T11:41:25.157Z,56.34
2023-02-15T11:43:58.673Z,57.96
2023-02-15T11:46:27.043Z,57.18
2023-02-15T11:48:55.105Z,55.77
2023-02-15T11:51:25.024Z,53.96
2023-02-15T11:53:53.740Z,53.85
2023-02-15T11:56:24.416Z,53.63
2023-02-15T11:58:59.116Z,53.07
2023-02-15T12:01:32.893Z,52.56
2023-02-15T12:04:04.408Z,52.62
2023-02-15T12:06:35.689Z,52.04
2023-02-15T12:09:08.691Z,52.43
2023-02-15T12:11:39.199Z,52.71
2023-02-15T12:14:10.601Z,51.61
2023-02-15T12:16:44.889Z,51.09
2023-02-15T12:19:32.120Z,52.48
2023-02-15T12:22:01.909Z,52.24
2023-02-15T12:24:32.732Z,51.14
2023-02-15T12:27:04.776Z,51.44
2023-02-15T12:29:44.073Z,51.60
2023-02-15T12:32:19.231Z,51.91
2023-02-15T12:34:48.589Z,51.66
2023-02-15T12:37:19.543Z,51.70
2023-02-15T12:39:57.087Z,52.12
2023-02-15T12:42:26.207Z,51.75
2023-02-15T12:45:01.970Z,52.24
2023-02-15T12:47:31.870Z,51.98
2023-02-15T12:50:12.632Z,53.06
2023-02-15T12:52:41.062Z,52.50
2023-02-15T12:55:20.696Z,52.94
2023-02-15T12:57:49.060Z,52.21
2023-02-15T13:00:32.730Z,52.22
2023-02-15T13:03:02.721Z,55.93
2023-02-15T13:05:35.936Z,57.58
2023-02-15T13:08:12.044Z,57.16
2023-02-15T13:10:44.354Z,58.54
2023-02-15T13:13:13.820Z,58.79
2023-02-15T13:15:46.396Z,57.14
2023-02-15T13:18:18.255Z,57.62
2023-02-15T13:20:47.129Z,58.56
2023-02-15T13:23:30.984Z,58.09
2023-02-15T13:26:01.823Z,58.35
2023-02-15T13:28:40.666Z,58.23
2023-02-15T13:31:15.251Z,57.18
2023-02-15T13:33:46.617Z,55.92
2023-02-15T13:36:23.197Z,56.15
2023-02-15T13:39:17.728Z,55.86
2023-02-15T13:41:58.501Z,55.92
2023-02-15T13:44:42.499Z,55.31
2023-02-15T13:47:24.061Z,55.10
2023-02-15T13:50:07.772Z,55.96
2023-02-15T13:52:42.660Z,55.43
2023-02-15T13:55:28.579Z,54.82
2023-02-15T13:58:31.165Z,54.33
2023-02-15T14:01:09.540Z,54.78
2023-02-15T14:04:03.153Z,55.30
2023-02-15T14:06:53.031Z,55.36
2023-02-15T14:09:33.068Z,54.87
2023-02-15T14:12:22.897Z,54.84
2023-02-15T14:15:08.837Z,55.13
2023-02-15T14:17:49.694Z,55.21
2023-02-15T14:20:24.005Z,55.43
2023-02-15T14:23:03.760Z,54.21
2023-02-15T14:25:38.656Z,55.17
2023-02-15T14:28:12.545Z,54.75
2023-02-15T14:30:43.906Z,54.55
2023-02-15T14:33:33.198Z,54.16
2023-02-15T14:36:07.270Z,53.96
2023-02-15T14:38:58.538Z,53.70
2023-02-15T14:41:33.676Z,54.64
2023-02-15T14:44:09.359Z,54.34
2023-02-15T14:46:44.988Z,54.84
2023-02-15T14:49:15.009Z,54.34
2023-02-15T14:52:06.307Z,54.23
2023-02-15T14:55:01.830Z,54.57
2023-02-15T14:57:36.338Z,54.68
2023-02-15T15:00:39.011Z,54.82
2023-02-15T15:03:20.429Z,54.78
2023-02-15T15:05:53.026Z,56.18
2023-02-15T15:08:31.359Z,56.48
2023-02-15T15:11:42.083Z,56.06
2023-02-15T15:14:32.945Z,55.70
2023-02-15T15:17:01.723Z,57.29
2023-02-15T15:20:05.092Z,56.64
2023-02-15T15:22:34.532Z,56.21
2023-02-15T15:25:03.711Z,57.26
2023-02-15T15:27:44.050Z,56.21
2023-02-15T15:31:00.697Z,55.91
2023-02-15T15:34:05.516Z,56.04
2023-02-15T15:37:21.703Z,55.99
2023-02-15T15:40:26.875Z,56.25
2023-02-15T15:43:20.454Z,56.85
2023-02-15T15:46:13.227Z,56.85
2023-02-15T15:48:43.199Z,56.78
2023-02-15T15:51:20.094Z,57.77
2023-02-15T15:53:53.936Z,57.11
2023-02-15T15:56:25.561Z,57.71
2023-02-15T15:58:56.566Z,57.74
2023-02-15T16:01:29.514Z,58.06
2023-02-15T16:03:59.577Z,57.94
2023-02-15T16:06:35.684Z,58.93
2023-02-15T16:09:19.398Z,58.55
2023-02-15T16:11:50.009Z,58.73
2023-02-15T16:14:23.541Z,58.91
2023-02-15T16:16:54.448Z,59.20
2023-02-15T16:19:29.182Z,59.00
2023-02-15T16:22:02.686Z,59.32
2023-02-15T16:24:53.060Z,59.78
2023-02-15T16:27:38.591Z,60.79
2023-02-15T16:30:24.072Z,60.86
2023-02-15T16:32:55.341Z,61.36
2023-02-15T16:35:24.450Z,61.15
2023-02-15T16:37:53.743Z,61.25
2023-02-15T16:40:45.292Z,61.12
2023-02-15T16:43:18.787Z,61.96
2023-02-15T16:45:48.217Z,62.07
2023-02-15T16:48:22.158Z,62.41
2023-02-15T16:50:53.890Z,61.84
2023-02-15T16:53:26.176Z,62.49
2023-02-15T16:55:57.123Z,62.55
2023-02-15T16:58:30.967Z,63.22
2023-02-15T17:01:01.718Z,63.25
2023-02-15T17:03:30.846Z,63.46
2023-02-15T17:06:01.027Z,63.93
2023-02-15T17:08:33.635Z,64.29
2023-02-15T17:11:17.205Z,63.85
2023-02-15T17:14:03.608Z,64.17
2023-02-15T17:16:34.213Z,63.92
2023-02-15T17:19:03.881Z,63.79
2023-02-15T17:21:35.817Z,64.97
2023-02-15T17:24:06.141Z,64.43
2023-02-15T17:26:36.219Z,65.05
2023-02-15T17:29:14.436Z,65.20
2023-02-15T17:31:42.866Z,65.38
2023-02-15T17:34:44.853Z,65.12
2023-02-15T17:37:14.711Z,65.38
2023-02-15T17:39:43.996Z,65.78
2023-02-15T17:42:11.911Z,65.78
2023-02-15T17:44:39.777Z,65.55
2023-02-15T17:47:07.957Z,65.47
2023-02-15T17:49:37.994Z,65.70
2023-02-15T17:52:06.346Z,65.84
2023-02-15T17:54:48.140Z,66.01
2023-02-15T17:57:18.100Z,66.42
2023-02-15T18:00:03.715Z,66.36
2023-02-15T18:02:58.327Z,66.63
2023-02-15T18:05:43.812Z,66.52
2023-02-15T18:08:32.061Z,66.38
2023-02-15T18:11:19.173Z,66.27
2023-02-15T18:13:48.581Z,67.38
2023-02-15T18:16:18.232Z,66.83
2023-02-15T18:18:46.714Z,67.42
2023-02-15T18:21:14.873Z,67.41
2023-02-15T18:23:43.176Z,68.64
2023-02-15T18:26:19.668Z,68.41
2023-02-15T18:28:49.068Z,68.43
2023-02-15T18:31:17.323Z,68.31
2023-02-15T18:33:48.334Z,68.37
2023-02-15T18:36:22.060Z,67.51
2023-02-15T18:38:50.643Z,67.70
2023-02-15T18:41:20.339Z,68.70
2023-02-15T18:43:50.266Z,68.08
2023-02-15T18:46:18.726Z,68.31
2023-02-15T18:48:47.343Z,68.18
2023-02-15T18:51:18.710Z,68.14
2023-02-15T18:53:48.071Z,67.95
2023-02-15T18:56:21.211Z,68.25
2023-02-15T18:58:50.706Z,68.38
2023-02-15T19:01:20.957Z,68.93
2023-02-15T19:03:50.045Z,68.80
2023-02-15T19:06:20.237Z,68.65
2023-02-15T19:08:50.333Z,68.17
2023-02-15T19:11:23.062Z,68.58
2023-02-15T19:13:53.682Z,68.75
2023-02-15T19:16:31.617Z,68.97
2023-02-15T19:18:59.869Z,69.29
2023-02-15T19:21:29.377Z,69.19
2023-02-15T19:24:00.132Z,68.66
2023-02-15T19:26:44.447Z,68.89
2023-02-15T19:29:17.867Z,68.70
2023-02-15T19:31:45.829Z,69.05
2023-02-15T19:34:16.659Z,69.30
2023-02-15T19:36:45.863Z,69.13
2023-02-15T19:39:24.349Z,69.52
2023-02-15T19:41:52.954Z,69.86
2023-02-15T19:44:23.043Z,69.72
2023-02-15T19:46:50.972Z,69.73
2023-02-15T19:49:18.855Z,70.23
2023-02-15T19:51:47.561Z,70.24
2023-02-15T19:54:24.128Z,69.65
2023-02-15T19:56:51.956Z,70.24
2023-02-15T19:59:25.938Z,69.96
2023-02-15T20:01:54.392Z,69.68
2023-02-15T20:04:22.626Z,69.95
2023-02-15T20:06:52.051Z,69.87
2023-02-15T20:09:25.578Z,69.86
2023-02-15T20:11:54.147Z,70.05
2023-02-15T20:14:24.154Z,70.06
2023-02-15T20:16:52.525Z,70.50
2023-02-15T20:19:20.463Z,69.46
2023-02-15T20:21:54.399Z,69.83
2023-02-15T20:24:23.571Z,70.00
2023-02-15T20:26:51.442Z,70.38
2023-02-15T20:29:20.293Z,70.86
2023-02-15T20:31:49.705Z,70.22
2023-02-15T20:34:17.672Z,70.50
2023-02-15T20:36:45.550Z,71.09
2023-02-15T20:39:16.500Z,69.71
2023-02-15T20:41:48.204Z,70.19
2023-02-15T20:44:20.588Z,70.35
2023-02-15T20:46:50.945Z,70.79
2023-02-15T20:49:19.176Z,70.75
2023-02-15T20:51:48.076Z,71.24
2023-02-15T20:54:18.853Z,71.03
2023-02-15T20:56:47.404Z,70.93
2023-02-15T20:59:25.174Z,71.39
2023-02-15T21:01:58.816Z,71.29
2023-02-15T21:04:31.364Z,71.13
2023-02-15T21:06:59.388Z,71.54
2023-02-15T21:09:27.529Z,72.63
2023-02-15T21:11:57.386Z,72.62
2023-02-15T21:14:28.097Z,72.11
2023-02-15T21:16:57.370Z,71.49
2023-02-15T21:19:25.723Z,71.57
2023-02-15T21:21:54.313Z,72.12
2023-02-15T21:24:25.659Z,72.28
2023-02-15T21:26:54.987Z,72.10
2023-02-15T21:29:26.372Z,72.16
2023-02-15T21:31:54.406Z,73.12
2023-02-15T21:34:24.107Z,72.98
2023-02-15T21:36:51.951Z,72.83
2023-02-15T21:39:22.191Z,72.73
2023-02-15T21:42:09.549Z,72.84
2023-02-15T21:44:55.493Z,72.83
2023-02-15T21:47:48.329Z,73.38
2023-02-15T21:50:37.109Z,73.11
2023-02-15T21:53:06.582Z,73.61
2023-02-15T21:55:34.742Z,73.67
2023-02-15T21:58:03.086Z,72.89
2023-02-15T22:00:31.885Z,73.31
2023-02-15T22:03:01.871Z,73.36
2023-02-15T22:05:33.144Z,73.59
2023-02-15T22:08:01.400Z,73.29
2023-02-15T22:10:32.228Z,73.67
2023-02-15T22:13:01.966Z,74.16
2023-02-15T22:15:35.257Z,72.90
2023-02-15T22:18:03.824Z,73.08
2023-02-15T22:20:33.205Z,73.31
2023-02-15T22:23:01.198Z,72.37
2023-02-15T22:25:29.157Z,72.73
2023-02-15T22:27:57.217Z,71.72
2023-02-15T22:30:27.693Z,72.64
2023-02-15T22:32:56.972Z,72.62
2023-02-15T22:35:27.681Z,74.03
2023-02-15T22:37:57.284Z,74.09
2023-02-15T22:40:30.524Z,74.24
2023-02-15T22:42:59.394Z,73.51
2023-02-15T22:45:29.149Z,74.46
2023-02-15T22:48:00.425Z,73.82
2023-02-15T22:50:30.859Z,74.57
2023-02-15T22:53:02.663Z,74.64
2023-02-15T22:55:33.916Z,73.75
2023-02-15T22:58:02.330Z,74.17
2023-02-15T23:00:33.609Z,74.54
2023-02-15T23:03:02.280Z,75.85
2023-02-15T23:05:32.074Z,75.89
2023-02-15T23:08:01.394Z,75.53
2023-02-15T23:10:30.532Z,75.54
2023-02-15T23:13:17.972Z,75.93
2023-02-15T23:15:48.815Z,76.36
2023-02-15T23:18:19.980Z,75.28
2023-02-15T23:20:50.579Z,75.35
2023-02-15T23:23:25.602Z,74.95
2023-02-15T23:25:53.527Z,75.37
2023-02-15T23:28:25.460Z,74.66
2023-02-15T23:30:53.710Z,75.50
2023-02-15T23:33:23.632Z,75.13
2023-02-15T23:35:52.153Z,75.25
2023-02-15T23:38:26.356Z,75.83
2023-02-15T23:41:14.978Z,75.92
2023-02-15T23:43:44.942Z,75.99
2023-02-15T23:46:23.694Z,75.65
2023-02-15T23:48:52.903Z,75.83
2023-02-15T23:51:21.892Z,75.75
2023-02-15T23:53:51.161Z,75.88
2023-02-15T23:56:19.051Z,75.36
2023-02-15T23:58:47.784Z,75.56
